Time;durP1;ratioP1;P1;durP2;ratioP2;P2;SDS_P1;SDS_P2;PMS_P1;PMS_P2;Temp;Humidity;BMP_temperature;BMP_pressure;BME280_temperature;BME280_humidity;BME280_pressure;Samples;Min_cycle;Max_cycle;Signal;HPM_P1;HPM_P2
2022/06/06 00:00:52;;;;;;;16.23;11.00;;;15.60;99.90;;;;;;5008662;28;20041;-80
2022/06/06 00:03:19;;;;;;;12.02;10.80;;;14.70;99.90;;;;;;5014542;28;20121;-79
2022/06/06 00:05:47;;;;;;;11.48;9.95;;;15.50;99.90;;;;;;5002353;28;20045;-80
2022/06/06 00:08:14;;;;;;;13.77;10.52;;;15.50;99.90;;;;;;5012455;28;20041;-80
2022/06/06 00:10:42;;;;;;;13.57;10.27;;;15.50;99.90;;;;;;5008617;28;20100;-81
2022/06/06 00:13:10;;;;;;;13.25;11.88;;;15.50;99.90;;;;;;5008953;28;20113;-80
2022/06/06 00:15:36;;;;;;;14.73;11.63;;;15.40;99.90;;;;;;5012304;28;20081;-79
2022/06/06 00:18:02;;;;;;;18.77;11.38;;;15.40;99.90;;;;;;4990885;28;20140;-80
2022/06/06 00:20:30;;;;;;;15.13;11.13;;;15.40;99.90;;;;;;5011341;28;20573;-79
2022/06/06 00:22:56;;;;;;;13.23;11.73;;;15.40;99.90;;;;;;4999423;28;20049;-80
2022/06/06 00:25:22;;;;;;;19.55;11.73;;;15.50;99.90;;;;;;5010642;28;20397;-80
2022/06/06 00:27:47;;;;;;;14.00;11.68;;;15.40;99.90;;;;;;4992475;28;20053;-80
2022/06/06 00:30:13;;;;;;;13.80;12.02;;;15.90;99.90;;;;;;5008905;28;20069;-78
2022/06/06 00:35:23;;;;;;;13.52;11.88;;;15.30;99.90;;;;;;5011054;28;20225;-81
2022/06/06 00:37:49;;;;;;;19.85;12.85;;;15.30;99.90;;;;;;4995319;28;20156;-80
2022/06/06 00:40:17;;;;;;;14.32;11.00;;;15.60;99.90;;;;;;5007080;28;20057;-81
2022/06/06 00:42:43;;;;;;;14.57;10.45;;;15.70;99.90;;;;;;4991126;28;20089;-81
2022/06/06 00:45:29;;;;;;;13.25;10.65;;;15.30;99.90;;;;;;5009719;28;20416;-80
2022/06/06 00:48:19;;;;;;;10.90;9.25;;;15.20;99.90;;;;;;5005864;28;20128;-80
2022/06/06 00:51:07;;;;;;;13.70;10.52;;;15.20;99.90;;;;;;5011824;28;20113;-79
2022/06/06 00:53:50;;;;;;;13.05;10.57;;;15.20;99.90;;;;;;5008478;28;20064;-81
2022/06/06 00:56:19;;;;;;;16.45;9.35;;;15.20;99.90;;;;;;4992424;28;20121;-79
2022/06/06 00:58:47;;;;;;;12.10;8.43;;;15.10;99.90;;;;;;4993603;28;20041;-80
2022/06/06 01:01:13;;;;;;;10.43;9.10;;;15.20;99.90;;;;;;5010724;28;20037;-80
2022/06/06 01:03:40;;;;;;;9.98;8.55;;;15.10;99.90;;;;;;5010847;28;20041;-81
2022/06/06 01:06:10;;;;;;;10.73;9.63;;;15.20;99.90;;;;;;5009431;28;20034;-80
2022/06/06 01:08:40;;;;;;;12.60;8.73;;;15.10;99.90;;;;;;4991785;28;20478;-78
2022/06/06 01:11:05;;;;;;;12.73;9.30;;;15.00;99.90;;;;;;5007462;28;20045;-77
2022/06/06 01:13:33;;;;;;;10.63;8.73;;;15.00;99.90;;;;;;4989478;28;20042;-81
2022/06/06 01:16:20;;;;;;;11.95;9.05;;;15.00;99.90;;;;;;5008665;28;20359;-81
2022/06/06 01:19:24;;;;;;;12.57;9.07;;;15.00;99.90;;;;;;5007211;28;20578;-78
2022/06/06 01:22:10;;;;;;;13.00;9.43;;;14.90;99.90;;;;;;5008563;28;20121;-81
2022/06/06 01:25:07;;;;;;;11.00;9.38;;;14.90;99.90;;;;;;5009631;28;20054;-77
2022/06/06 01:27:51;;;;;;;12.60;9.75;;;14.90;99.90;;;;;;5011166;28;20052;-82
2022/06/06 01:30:39;;;;;;;11.60;8.63;;;14.80;99.90;;;;;;5011623;28;20045;-82
2022/06/06 01:33:09;;;;;;;15.63;9.10;;;14.80;99.90;;;;;;4993015;28;20551;-81
2022/06/06 01:35:37;;;;;;;10.85;8.45;;;14.80;99.90;;;;;;5008217;28;20049;-82
2022/06/06 01:38:04;;;;;;;10.02;8.07;;;14.70;99.90;;;;;;4995387;28;20076;-80
2022/06/06 01:40:42;;;;;;;13.20;8.80;;;14.70;99.90;;;;;;5007258;28;20073;-80
2022/06/06 01:43:17;;;;;;;15.00;9.65;;;14.60;99.90;;;;;;5006891;28;20046;-80
2022/06/06 01:45:45;;;;;;;14.05;9.30;;;14.60;99.90;;;;;;5008133;28;20060;-81
2022/06/06 01:48:21;;;;;;;10.88;8.15;;;14.70;99.90;;;;;;4997178;28;20033;-80
2022/06/06 01:50:47;;;;;;;13.15;8.73;;;14.50;99.90;;;;;;5011917;28;20041;-79
2022/06/06 01:53:18;;;;;;;10.35;8.05;;;14.50;99.90;;;;;;5007201;28;20053;-78
2022/06/06 01:55:46;;;;;;;12.63;5.55;;;14.50;99.90;;;;;;5009456;28;20038;-82
2022/06/06 01:58:25;;;;;;;7.97;6.63;;;15.80;99.90;;;;;;5008930;28;20353;-80
2022/06/06 02:00:51;;;;;;;7.43;6.10;;;14.50;99.90;;;;;;4993098;28;20069;-82
2022/06/06 02:03:17;;;;;;;10.55;6.30;;;14.30;99.90;;;;;;4991014;28;20135;-82
2022/06/06 02:05:43;;;;;;;4.95;4.50;;;15.40;99.90;;;;;;4993564;28;20060;-83
2022/06/06 02:08:09;;;;;;;10.38;5.10;;;15.00;99.90;;;;;;5011694;28;20046;-81
2022/06/06 02:10:35;;;;;;;4.28;3.88;;;15.90;99.90;;;;;;5008030;28;20588;-82
2022/06/06 02:13:01;;;;;;;5.47;4.10;;;14.30;99.90;;;;;;4986335;28;20077;-82
2022/06/06 02:15:27;;;;;;;6.28;3.30;;;14.30;99.90;;;;;;4988654;28;20059;-81
2022/06/06 02:17:54;;;;;;;7.13;3.97;;;14.70;99.90;;;;;;5005811;28;20060;-83
2022/06/06 02:20:25;;;;;;;5.95;4.80;;;14.20;99.90;;;;;;5005950;28;20029;-78
2022/06/06 02:22:52;;;;;;;6.80;4.15;;;14.10;99.90;;;;;;4994183;28;20056;-83
2022/06/06 02:25:18;;;;;;;6.85;4.13;;;14.10;99.90;;;;;;5007260;28;20089;-82
2022/06/06 02:27:44;;;;;;;5.63;3.95;;;14.10;99.90;;;;;;4992754;28;20526;-82
2022/06/06 02:30:18;;;;;;;8.27;4.43;;;14.80;99.90;;;;;;5007059;28;20148;-83
2022/06/06 02:32:44;;;;;;;7.32;4.38;;;14.20;99.90;;;;;;4990407;28;20064;-83
2022/06/06 02:35:14;;;;;;;8.68;4.72;;;14.30;99.90;;;;;;5015232;28;20042;-82
2022/06/06 02:37:40;;;;;;;10.82;5.28;;;13.90;99.90;;;;;;5010522;28;20045;-80
2022/06/06 02:40:09;;;;;;;7.20;4.03;;;13.70;99.90;;;;;;5009283;28;20054;-83
2022/06/06 02:42:35;;;;;;;9.00;5.10;;;13.90;99.90;;;;;;4988235;28;20128;-82
2022/06/06 02:45:02;;;;;;;7.07;4.75;;;15.30;99.90;;;;;;4988203;28;20050;-81
2022/06/06 02:47:29;;;;;;;7.90;5.28;;;13.90;99.90;;;;;;5006903;28;20124;-82
2022/06/06 02:49:54;;;;;;;7.13;5.72;;;13.90;99.90;;;;;;5009139;28;20037;-83
2022/06/06 02:52:20;;;;;;;9.65;6.18;;;13.90;99.90;;;;;;5005885;28;20077;-82
2022/06/06 02:54:46;;;;;;;10.02;6.38;;;14.90;99.90;;;;;;4992108;28;20099;-82
2022/06/06 02:57:12;;;;;;;10.07;4.88;;;13.80;99.90;;;;;;4990843;28;20071;-81
2022/06/06 02:59:38;;;;;;;11.80;7.18;;;13.90;99.90;;;;;;5008372;28;20034;-82
2022/06/06 03:02:04;;;;;;;10.48;6.95;;;13.90;99.90;;;;;;4991720;28;20108;-83
2022/06/06 03:04:32;;;;;;;10.23;7.10;;;13.80;99.90;;;;;;5003394;28;20031;-83
2022/06/06 03:07:23;;;;;;;11.07;5.85;;;13.80;99.90;;;;;;4982975;28;20065;-86
2022/06/06 03:10:07;;;;;;;7.45;5.75;;;15.10;99.90;;;;;;5011674;28;20477;-83
2022/06/06 03:12:32;;;;;;;7.03;6.18;;;13.90;99.90;;;;;;5004028;28;20120;-81
2022/06/06 03:15:01;;;;;;;6.63;5.97;;;13.90;99.90;;;;;;5004480;28;20672;-83
2022/06/06 03:21:19;;;;;;;7.97;5.53;;;14.60;99.90;;;;;;5008064;28;20378;-83
2022/06/06 03:23:58;;;;;;;7.35;4.97;;;13.90;99.90;;;;;;4990392;28;20415;-82
2022/06/06 03:26:24;;;;;;;5.43;4.38;;;13.80;99.90;;;;;;5008671;28;20038;-78
2022/06/06 03:29:06;;;;;;;7.20;5.88;;;13.80;99.90;;;;;;5011455;28;20355;-83
2022/06/06 03:31:50;;;;;;;4.47;4.00;;;13.80;99.90;;;;;;5013358;28;20041;-85
2022/06/06 03:34:45;;;;;;;6.28;4.60;;;13.80;99.90;;;;;;5011590;28;20042;-81
2022/06/06 03:37:24;;;;;;;6.40;4.93;;;13.80;99.90;;;;;;4995903;28;20529;-80
2022/06/06 03:39:53;;;;;;;8.25;4.80;;;13.80;99.90;;;;;;5013192;28;20124;-82
2022/06/06 03:42:27;;;;;;;6.03;4.70;;;13.70;99.90;;;;;;4996233;28;20049;-81
2022/06/06 03:45:18;;;;;;;7.30;4.40;;;13.70;99.90;;;;;;5010646;28;20042;-80
2022/06/06 03:47:49;;;;;;;4.95;4.40;;;13.70;99.90;;;;;;5005104;28;20410;-82
2022/06/06 03:50:42;;;;;;;5.82;4.45;;;13.70;99.90;;;;;;5009971;28;20124;-84
2022/06/06 03:53:39;;;;;;;5.35;4.40;;;13.70;99.90;;;;;;5011408;28;20038;-83
2022/06/06 03:56:31;;;;;;;4.05;3.75;;;15.20;99.90;;;;;;4994457;28;20509;-82
2022/06/06 03:58:58;;;;;;;5.28;4.28;;;13.10;99.90;;;;;;5009390;28;20033;-82
2022/06/06 04:01:25;;;;;;;3.85;3.45;;;14.40;99.90;;;;;;4994535;28;20030;-82
2022/06/06 04:03:53;;;;;;;7.40;3.92;;;13.60;99.90;;;;;;5004829;28;20085;-81
2022/06/06 04:06:19;;;;;;;6.15;3.92;;;13.70;99.90;;;;;;5010394;28;20042;-82
2022/06/06 04:08:45;;;;;;;6.43;4.05;;;13.70;99.90;;;;;;4995846;28;20045;-82
2022/06/06 04:11:29;;;;;;;5.95;3.75;;;13.60;99.90;;;;;;5007237;28;20091;-81
2022/06/06 04:14:30;;;;;;;3.83;3.47;;;13.60;99.90;;;;;;5009780;28;20054;-81
2022/06/06 04:17:24;;;;;;;3.47;3.20;;;13.70;99.90;;;;;;4991886;28;20053;-80
2022/06/06 04:20:08;;;;;;;4.53;4.13;;;13.60;99.90;;;;;;5020139;28;20514;-80
2022/06/06 04:23:00;;;;;;;5.28;3.67;;;13.60;99.90;;;;;;5018083;28;20315;-81
2022/06/06 04:25:27;;;;;;;3.78;3.45;;;13.60;99.90;;;;;;5006783;28;20049;-77
2022/06/06 04:28:07;;;;;;;3.92;3.40;;;14.30;99.90;;;;;;5020482;28;20049;-78
2022/06/06 04:30:42;;;;;;;3.05;2.85;;;13.60;99.90;;;;;;4990349;28;20478;-79
2022/06/06 04:33:08;;;;;;;3.58;2.58;;;13.70;99.90;;;;;;5016132;28;20048;-79
2022/06/06 04:35:47;;;;;;;2.38;2.17;;;13.70;99.90;;;;;;5023662;28;20041;-78
2022/06/06 04:38:36;;;;;;;1.98;1.77;;;13.80;99.90;;;;;;4999180;28;20374;-79
2022/06/06 04:41:15;;;;;;;1.70;1.60;;;13.80;99.90;;;;;;5010066;28;20041;-78
2022/06/06 04:44:03;;;;;;;1.98;1.88;;;13.80;99.90;;;;;;5020338;28;20121;-79
2022/06/06 04:46:47;;;;;;;2.67;2.47;;;13.90;99.90;;;;;;4998781;28;20537;-79
2022/06/06 04:49:13;;;;;;;2.58;2.25;;;13.80;99.90;;;;;;5016242;28;20033;-79
2022/06/06 04:51:42;;;;;;;2.17;1.48;;;13.80;99.90;;;;;;5006672;28;20048;-80
2022/06/06 04:54:13;;;;;;;3.22;2.72;;;13.80;99.90;;;;;;5009864;28;20042;-79
2022/06/06 04:56:39;;;;;;;1.77;1.50;;;13.80;99.90;;;;;;5017775;28;20406;-78
2022/06/06 04:59:10;;;;;;;3.05;2.80;;;13.80;99.90;;;;;;5020293;28;20045;-79
2022/06/06 05:01:38;;;;;;;2.85;2.58;;;13.80;99.90;;;;;;5019419;28;20033;-78
2022/06/06 05:04:03;;;;;;;3.78;3.28;;;13.70;99.90;;;;;;5018230;28;20038;-77
2022/06/06 05:06:29;;;;;;;4.25;3.85;;;13.70;99.90;;;;;;5016768;28;20451;-78
2022/06/06 05:09:13;;;;;;;4.40;3.63;;;13.70;99.90;;;;;;5018712;28;20391;-78
2022/06/06 05:12:20;;;;;;;6.15;5.10;;;13.60;99.90;;;;;;5014768;28;20046;-78
2022/06/06 05:15:17;;;;;;;6.97;5.32;;;13.60;99.90;;;;;;5019465;28;20037;-79
2022/06/06 05:18:01;;;;;;;8.85;6.05;;;13.60;99.90;;;;;;4662100;28;10000254;-79
2022/06/06 05:20:51;;;;;;;7.65;6.45;;;13.60;99.90;;;;;;5018646;28;20041;-78
2022/06/06 05:23:33;;;;;;;8.32;5.18;;;13.60;99.90;;;;;;5009253;28;20049;-78
2022/06/06 05:26:26;;;;;;;13.75;8.07;;;13.60;99.90;;;;;;5018415;28;20057;-77
2022/06/06 05:29:29;;;;;;;12.35;8.27;;;13.60;99.90;;;;;;4992705;28;20057;-78
2022/06/06 05:32:07;;;;;;;14.18;8.65;;;13.50;99.90;;;;;;5020702;28;20042;-78
2022/06/06 05:34:51;;;;;;;11.43;7.13;;;13.50;99.90;;;;;;5002459;28;20041;-77
2022/06/06 05:37:33;;;;;;;15.57;7.78;;;13.60;99.90;;;;;;5009752;28;20044;-78
2022/06/06 05:40:05;;;;;;;14.20;7.65;;;13.50;99.90;;;;;;5013113;28;20062;-79
2022/06/06 05:43:12;;;;;;;15.07;8.25;;;13.50;99.90;;;;;;5012371;28;20053;-79
2022/06/06 05:45:56;;;;;;;15.45;8.35;;;13.40;99.90;;;;;;4985058;28;20100;-80
2022/06/06 05:48:46;;;;;;;12.47;8.80;;;13.40;99.90;;;;;;5011108;28;20048;-78
2022/06/06 05:51:20;;;;;;;14.32;6.95;;;13.40;99.90;;;;;;5018465;28;20060;-79
2022/06/06 05:53:55;;;;;;;14.27;7.35;;;13.40;99.90;;;;;;4996822;28;20580;-79
2022/06/06 05:56:38;;;;;;;12.25;6.97;;;13.30;99.90;;;;;;5007795;28;20427;-78
2022/06/06 05:59:41;;;;;;;12.70;6.85;;;13.30;99.90;;;;;;5008554;28;20433;-80
2022/06/06 06:02:40;;;;;;;9.22;6.32;;;13.30;99.90;;;;;;4856313;28;10000905;-80
2022/06/06 06:05:15;;;;;;;9.35;6.93;;;13.30;99.90;;;;;;5019159;28;20270;-78
2022/06/06 06:08:03;;;;;;;10.82;8.07;;;13.30;99.90;;;;;;5010392;28;20050;-80
2022/06/06 06:10:36;;;;;;;9.52;6.38;;;13.30;99.90;;;;;;5014872;28;20093;-79
2022/06/06 06:13:08;;;;;;;15.30;8.25;;;13.30;99.90;;;;;;5014150;28;20095;-79
2022/06/06 06:15:42;;;;;;;11.38;7.13;;;13.30;99.90;;;;;;5012519;28;20046;-77
2022/06/06 06:18:26;;;;;;;15.30;8.50;;;13.30;99.90;;;;;;5014792;28;20445;-78
2022/06/06 06:20:58;;;;;;;8.77;6.35;;;13.30;99.90;;;;;;5012573;28;20048;-78
2022/06/06 06:23:29;;;;;;;6.15;5.15;;;12.30;99.90;;;;;;5008389;28;20033;-79
2022/06/06 06:25:59;;;;;;;6.32;4.43;;;13.30;99.90;;;;;;5013463;28;20489;-78
2022/06/06 06:28:27;;;;;;;5.43;4.90;;;13.40;99.90;;;;;;5011969;28;20038;-78
2022/06/06 06:31:03;;;;;;;7.18;4.97;;;13.40;99.90;;;;;;5012828;28;20038;-79
2022/06/06 06:33:40;;;;;;;8.68;5.40;;;13.40;99.90;;;;;;4995291;28;20041;-79
2022/06/06 06:36:22;;;;;;;3.72;3.10;;;13.40;99.90;;;;;;5013580;28;20076;-79
2022/06/06 06:39:03;;;;;;;5.10;2.65;;;13.50;99.90;;;;;;5013057;28;20057;-79
2022/06/06 06:42:03;;;;;;;3.45;2.70;;;13.50;99.90;;;;;;5012822;28;20068;-78
2022/06/06 06:44:40;;;;;;;5.10;3.20;;;13.50;99.90;;;;;;4942442;28;20066;-78
2022/06/06 06:47:11;;;;;;;6.72;3.10;;;13.60;99.90;;;;;;5010838;28;20038;-78
2022/06/06 06:49:46;;;;;;;4.13;2.75;;;14.30;99.90;;;;;;5009856;28;20161;-78
2022/06/06 06:52:26;;;;;;;5.10;4.07;;;13.40;99.90;;;;;;5016052;28;20045;-78
2022/06/06 06:55:04;;;;;;;6.82;3.53;;;13.40;99.90;;;;;;5010369;28;20037;-78
2022/06/06 06:57:56;;;;;;;6.13;3.85;;;13.40;99.90;;;;;;5002916;28;20079;-77
2022/06/06 07:00:23;;;;;;;6.82;3.67;;;13.50;99.90;;;;;;5011061;28;20046;-77
2022/06/06 07:09:09;;;;;;;7.57;3.70;;;13.50;99.90;;;;;;5016051;28;20093;-79
2022/06/06 07:12:23;;;;;;;10.77;3.63;;;13.50;99.90;;;;;;5014643;28;20145;-77
2022/06/06 07:15:12;;;;;;;6.95;3.88;;;13.50;99.90;;;;;;4926902;29;20126;-79
2022/06/06 07:17:45;;;;;;;5.95;3.45;;;13.50;99.90;;;;;;5028422;28;20042;-78
2022/06/06 07:20:13;;;;;;;5.80;4.07;;;13.60;99.90;;;;;;5010487;28;20073;-79
2022/06/06 07:25:33;;;;;;;6.35;3.58;;;13.80;99.90;;;;;;5014367;28;20080;-79
2022/06/06 07:27:59;;;;;;;8.60;3.30;;;13.50;99.90;;;;;;5461146;22;21354;-80
2022/06/06 07:30:29;;;;;;;6.40;2.97;;;14.50;99.90;;;;;;4960450;28;20580;-84
2022/06/06 07:33:04;;;;;;;4.93;3.15;;;13.90;99.90;;;;;;4960795;28;20078;-83
2022/06/06 07:35:48;;;;;;;5.05;2.30;;;13.80;99.90;;;;;;4958085;28;20562;-83
2022/06/06 07:38:40;;;;;;;5.03;2.60;;;13.80;99.90;;;;;;4963158;28;20158;-82
2022/06/06 07:41:19;;;;;;;3.55;2.65;;;13.90;99.90;;;;;;4964736;28;20494;-84
2022/06/06 07:44:11;;;;;;;8.10;2.78;;;13.90;99.90;;;;;;4957642;28;20086;-81
2022/06/06 07:46:53;;;;;;;4.57;3.08;;;14.70;99.90;;;;;;4932897;28;20575;-83
2022/06/06 07:49:46;;;;;;;9.45;3.58;;;14.00;99.90;;;;;;4976108;28;20049;-82
2022/06/06 07:52:28;;;;;;;4.93;2.92;;;12.80;99.90;;;;;;4956415;28;20296;-82
2022/06/06 07:55:28;;;;;;;3.90;2.45;;;14.30;99.90;;;;;;4958828;28;20043;-88
2022/06/06 07:57:56;;;;;;;4.70;2.70;;;14.30;99.90;;;;;;4953058;28;20047;-79
2022/06/06 08:00:28;;;;;;;4.93;2.67;;;14.40;99.90;;;;;;4953819;28;20058;-76
2022/06/06 08:03:19;;;;;;;6.70;2.80;;;14.50;99.90;;;;;;4972551;28;20043;-81
2022/06/06 08:06:03;;;;;;;5.95;3.22;;;14.50;99.90;;;;;;4973955;28;20059;-81
2022/06/06 08:08:35;;;;;;;5.25;2.80;;;14.50;99.90;;;;;;4962374;28;20039;-81
2022/06/06 08:11:28;;;;;;;6.47;3.40;;;14.50;99.90;;;;;;4945053;28;20062;-82
2022/06/06 08:14:22;;;;;;;8.85;3.80;;;14.50;99.90;;;;;;4928738;28;20073;-80
2022/06/06 08:16:55;;;;;;;11.65;4.03;;;14.50;99.90;;;;;;4966675;28;20034;-79
2022/06/06 08:19:46;;;;;;;5.80;3.40;;;15.00;99.90;;;;;;4965733;28;20115;-82
2022/06/06 08:22:13;;;;;;;5.30;2.42;;;14.50;99.90;;;;;;4962543;28;20046;-84
2022/06/06 08:24:47;;;;;;;8.23;3.83;;;14.60;99.90;;;;;;4951185;28;20103;-81
2022/06/06 08:27:17;;;;;;;4.70;3.97;;;14.50;99.90;;;;;;4964984;28;20073;-83
2022/06/06 08:29:44;;;;;;;6.82;4.80;;;14.50;99.90;;;;;;4949754;28;20055;-79
2022/06/06 08:32:11;;;;;;;7.20;5.20;;;15.80;99.90;;;;;;4965141;28;20047;-80
2022/06/06 08:34:37;;;;;;;6.57;4.70;;;14.70;99.90;;;;;;4952262;28;20069;-77
2022/06/06 08:37:27;;;;;;;10.43;4.63;;;15.90;99.90;;;;;;4969973;28;20496;-81
2022/06/06 08:39:59;;;;;;;8.27;5.68;;;14.90;99.90;;;;;;4982233;28;20129;-83
2022/06/06 08:42:49;;;;;;;6.25;3.60;;;14.80;99.90;;;;;;4969640;28;20063;-83
2022/06/06 08:45:35;;;;;;;5.25;3.85;;;14.80;99.90;;;;;;4949979;28;20055;-81
2022/06/06 08:48:38;;;;;;;7.28;4.15;;;14.90;99.90;;;;;;4967679;28;20057;-81
2022/06/06 08:51:24;;;;;;;6.43;3.80;;;14.90;99.90;;;;;;4983216;28;20034;-80
2022/06/06 08:54:17;;;;;;;9.88;4.68;;;15.20;99.90;;;;;;4966084;28;20062;-79
2022/06/06 08:57:01;;;;;;;6.25;3.30;;;15.00;99.90;;;;;;4963988;28;20047;-80
2022/06/06 08:59:46;;;;;;;7.93;3.17;;;15.10;99.90;;;;;;4961275;28;20043;-80
2022/06/06 09:02:30;;;;;;;;;;;15.20;99.90;;;;;;4964759;28;20170;-80
2022/06/06 09:05:24;;;;;;;5.50;2.33;;;15.40;99.90;;;;;;4966498;28;19981;-80
2022/06/06 09:08:21;;;;;;;7.65;2.40;;;15.30;99.90;;;;;;4947739;28;20054;-82
2022/06/06 09:11:22;;;;;;;6.50;2.53;;;15.30;99.90;;;;;;4963956;28;20596;-81
2022/06/06 09:14:38;;;;;;;5.82;3.00;;;15.20;99.90;;;;;;4967720;28;20477;-87
2022/06/06 09:17:32;;;;;;;8.80;3.55;;;15.20;99.90;;;;;;4952387;28;20501;-82
2022/06/06 09:20:10;;;;;;;8.13;3.22;;;15.10;99.90;;;;;;4957549;28;20058;-83
2022/06/06 09:22:58;;;;;;;5.45;2.30;;;15.10;99.90;;;;;;4953219;28;20101;-83
2022/06/06 09:25:52;;;;;;;4.50;2.80;;;15.10;99.90;;;;;;4968154;28;20183;-86
2022/06/06 09:28:17;;;;;;;7.00;3.17;;;15.20;99.90;;;;;;4966122;28;20486;-83
2022/06/06 09:31:23;;;;;;;8.18;3.03;;;15.20;99.90;;;;;;4950216;28;20130;-80
2022/06/06 09:34:17;;;;;;;3.00;2.60;;;15.30;99.90;;;;;;4960742;28;20078;-85
2022/06/06 09:37:06;;;;;;;5.38;2.83;;;15.30;99.90;;;;;;4979258;28;20047;-86
2022/06/06 09:39:55;;;;;;;9.30;2.30;;;15.30;99.90;;;;;;4950512;28;20038;-87
2022/06/06 09:42:27;;;;;;;6.40;2.33;;;15.40;99.90;;;;;;4967321;28;20066;-88
2022/06/06 09:45:29;;;;;;;7.60;2.97;;;15.60;99.90;;;;;;4965049;28;20058;-86
2022/06/06 09:48:18;;;;;;;3.47;1.67;;;15.60;99.90;;;;;;4963186;28;20047;-85
2022/06/06 09:51:14;;;;;;;7.32;2.40;;;15.70;99.90;;;;;;4959777;28;20409;-84
2022/06/06 10:00:22;;;;;;;4.35;1.77;;;15.90;99.90;;;;;;4968587;28;20038;-86
2022/06/06 10:03:12;;;;;;;3.55;1.20;;;15.90;99.90;;;;;;4938255;28;20047;-84
2022/06/06 10:06:19;;;;;;;4.47;1.05;;;16.10;99.90;;;;;;4966936;28;20390;-86
2022/06/06 10:09:12;;;;;;;5.72;1.40;;;16.20;99.90;;;;;;4958287;28;20071;-86
2022/06/06 10:11:58;;;;;;;3.42;1.20;;;16.20;99.90;;;;;;4966166;28;20074;-86
2022/06/06 10:14:39;;;;;;;6.20;1.67;;;16.40;99.90;;;;;;4960974;28;20059;-82
2022/06/06 10:17:17;;;;;;;2.58;0.90;;;16.40;99.90;;;;;;4948110;28;20127;-83
2022/06/06 10:19:56;;;;;;;10.15;1.13;;;16.60;99.90;;;;;;4964075;28;20085;-80
2022/06/06 10:22:32;;;;;;;9.32;1.00;;;16.70;99.90;;;;;;4976435;28;20076;-84
2022/06/06 10:25:09;;;;;;;6.97;1.00;;;16.80;99.90;;;;;;4964450;28;20050;-81
2022/06/06 10:27:56;;;;;;;7.55;1.40;;;16.90;99.90;;;;;;4967680;28;20049;-80
2022/06/06 10:30:45;;;;;;;6.32;1.08;;;16.90;99.90;;;;;;4942112;28;20066;-86
2022/06/06 10:33:31;;;;;;;4.53;0.93;;;16.90;99.90;;;;;;4967089;28;20042;-86
2022/06/06 10:36:16;;;;;;;9.45;0.73;;;17.00;99.90;;;;;;4965320;28;20047;-77
2022/06/06 10:38:51;;;;;;;3.47;0.77;;;16.90;99.90;;;;;;4971824;28;20081;-78
2022/06/06 10:41:48;;;;;;;4.53;0.60;;;16.90;99.90;;;;;;4965440;28;20106;-79
2022/06/06 10:44:42;;;;;;;4.15;0.70;;;16.90;99.90;;;;;;4945913;28;20486;-79
2022/06/06 10:47:11;;;;;;;6.05;1.15;;;16.80;99.90;;;;;;4961548;28;20082;-79
2022/06/06 10:49:46;;;;;;;6.60;1.30;;;16.90;99.90;;;;;;4964696;28;20105;-82
2022/06/06 10:52:21;;;;;;;5.45;0.60;;;17.00;99.90;;;;;;4941340;28;20350;-81
2022/06/06 10:55:11;;;;;;;4.75;1.05;;;17.00;99.90;;;;;;4967731;28;20405;-84
2022/06/06 10:57:48;;;;;;;4.30;1.60;;;17.00;99.90;;;;;;4946762;28;20042;-79
2022/06/06 11:00:51;;;;;;;0.80;0.30;;;17.10;99.90;;;;;;4964535;28;20038;-80
2022/06/06 11:03:52;;;;;;;3.35;0.40;;;17.10;99.90;;;;;;4964261;28;20046;-80
2022/06/06 11:06:30;;;;;;;4.55;0.70;;;17.20;99.90;;;;;;4965275;28;20125;-79
2022/06/06 11:08:59;;;;;;;4.60;0.55;;;17.20;99.90;;;;;;4959119;28;20715;-83
2022/06/06 11:11:43;;;;;;;4.13;0.77;;;17.20;99.90;;;;;;4965235;28;20030;-82
2022/06/06 11:14:18;;;;;;;7.85;0.65;;;17.00;99.90;;;;;;4962134;28;20078;-86
2022/06/06 11:17:05;;;;;;;6.88;0.88;;;17.10;99.90;;;;;;4940990;28;20043;-88
2022/06/06 11:19:48;;;;;;;3.55;0.40;;;17.30;99.90;;;;;;4965059;28;20784;-85
2022/06/06 11:22:48;;;;;;;3.67;0.68;;;17.20;99.90;;;;;;4963578;28;20049;-83
2022/06/06 11:25:15;;;;;;;6.13;0.57;;;17.20;99.90;;;;;;4980015;28;20057;-80
2022/06/06 11:27:59;;;;;;;6.18;1.10;;;17.10;99.90;;;;;;4960709;28;20046;-83
2022/06/06 11:30:50;;;;;;;5.68;0.60;;;17.00;99.90;;;;;;4965272;28;20465;-84
2022/06/06 11:33:35;;;;;;;4.03;0.75;;;16.90;99.90;;;;;;4944442;28;20114;-85
2022/06/06 11:36:38;;;;;;;2.67;0.30;;;16.90;99.90;;;;;;4978995;28;20051;-84
2022/06/06 11:39:42;;;;;;;3.92;0.68;;;17.00;99.90;;;;;;4979881;28;20041;-82
2022/06/06 11:42:34;;;;;;;6.95;0.73;;;17.30;99.90;;;;;;4965836;28;20043;-80
2022/06/06 11:45:23;;;;;;;3.38;0.70;;;17.40;99.90;;;;;;4965553;28;20122;-79
2022/06/06 11:48:11;;;;;;;4.13;0.82;;;17.50;99.90;;;;;;4982178;28;20397;-79
2022/06/06 11:51:01;;;;;;;6.28;0.90;;;17.40;99.90;;;;;;4950509;28;20142;-82
2022/06/06 11:53:55;;;;;;;6.05;1.23;;;17.40;99.90;;;;;;4951605;28;20045;-84
2022/06/06 11:57:05;;;;;;;5.35;0.90;;;17.10;99.90;;;;;;4966234;28;20043;-78
2022/06/06 12:00:29;;;;;;;3.25;1.20;;;17.00;99.90;;;;;;4985072;28;20490;-85
2022/06/06 12:03:03;;;;;;;5.22;0.90;;;16.80;99.90;;;;;;4943676;28;20055;-87
2022/06/06 12:05:43;;;;;;;5.05;0.95;;;16.60;99.90;;;;;;4974196;28;20031;-91
2022/06/06 12:08:27;;;;;;;4.30;1.50;;;16.60;99.90;;;;;;4988615;28;20047;-90
2022/06/06 12:11:14;;;;;;;4.88;1.10;;;16.60;99.90;;;;;;4948609;28;20105;-83
2022/06/06 12:13:56;;;;;;;3.63;1.00;;;16.60;99.90;;;;;;4972091;28;20042;-93
2022/06/06 12:16:44;;;;;;;1.60;0.82;;;16.80;99.90;;;;;;4970638;28;20102;-89
2022/06/06 12:19:39;;;;;;;2.42;1.00;;;17.00;99.90;;;;;;4978176;28;20035;-87
2022/06/06 12:22:20;;;;;;;4.10;1.63;;;17.10;99.90;;;;;;4964872;28;20039;-90
2022/06/06 12:25:07;;;;;;;2.70;1.15;;;17.00;99.90;;;;;;4969478;28;20379;-88
2022/06/06 12:27:53;;;;;;;6.65;1.30;;;16.90;99.90;;;;;;4951132;28;20043;-86
2022/06/06 12:30:54;;;;;;;3.08;0.70;;;16.60;99.90;;;;;;4963041;28;20106;-85
2022/06/06 12:33:35;;;;;;;5.05;1.20;;;16.00;99.90;;;;;;4969906;28;20039;-88
2022/06/06 12:36:20;;;;;;;6.53;1.58;;;15.60;99.90;;;;;;4971621;28;20117;-86
2022/06/06 12:39:11;;;;;;;3.70;1.30;;;15.40;99.90;;;;;;4967043;28;20038;-86
2022/06/06 12:42:04;;;;;;;8.00;1.70;;;15.20;99.90;;;;;;4969500;28;20043;-83
2022/06/06 12:44:59;;;;;;;4.78;1.33;;;15.00;99.90;;;;;;4968491;28;20038;-84
2022/06/06 12:47:48;;;;;;;6.28;1.80;;;15.00;99.90;;;;;;4969850;28;20043;-84
2022/06/06 12:50:19;;;;;;;6.78;1.80;;;15.00;99.90;;;;;;4983053;28;20493;-82
2022/06/06 12:53:12;;;;;;;3.88;1.63;;;14.90;99.90;;;;;;4968756;28;20058;-81
2022/06/06 12:56:07;;;;;;;4.05;1.30;;;14.80;99.90;;;;;;4966212;28;20053;-81
2022/06/06 12:58:40;;;;;;;4.63;1.60;;;14.80;99.90;;;;;;4965972;28;20093;-87
2022/06/06 13:01:37;;;;;;;6.53;1.60;;;14.60;99.90;;;;;;4962738;28;20121;-82
2022/06/06 13:04:48;;;;;;;3.75;1.60;;;14.60;99.90;;;;;;4967459;28;20048;-83
2022/06/06 13:07:53;;;;;;;2.63;1.90;;;14.60;99.90;;;;;;4914455;29;20078;-84
2022/06/06 13:10:27;;;;;;;3.42;1.23;;;14.50;99.90;;;;;;4928743;29;20051;-85
2022/06/06 13:13:17;;;;;;;5.03;1.90;;;14.50;99.90;;;;;;4961981;28;20141;-81
2022/06/06 13:16:11;;;;;;;3.28;1.80;;;14.50;99.90;;;;;;4966524;28;20302;-81
2022/06/06 13:19:02;;;;;;;5.80;2.53;;;14.40;99.90;;;;;;4963554;28;20037;-78
2022/06/06 13:21:46;;;;;;;6.95;2.30;;;14.60;99.90;;;;;;4968053;28;20054;-76
2022/06/06 13:24:27;;;;;;;8.57;2.30;;;14.80;99.90;;;;;;4960352;28;20058;-82
2022/06/06 13:27:12;;;;;;;8.07;2.22;;;14.70;99.90;;;;;;4966949;28;20082;-83
2022/06/06 13:29:38;;;;;;;5.22;2.05;;;14.80;99.90;;;;;;4960452;28;20066;-80
2022/06/06 13:32:06;;;;;;;3.78;2.30;;;15.40;99.90;;;;;;4968158;28;20290;-77
2022/06/06 13:34:56;;;;;;;5.60;2.78;;;14.80;99.90;;;;;;4962508;28;20129;-82
2022/06/06 13:38:03;;;;;;;8.55;6.07;;;14.70;99.90;;;;;;4947589;28;20086;-81
2022/06/06 13:40:42;;;;;;;4.05;2.50;;;14.60;99.90;;;;;;4947563;28;20073;-82
2022/06/06 13:43:25;;;;;;;6.70;3.13;;;13.90;99.90;;;;;;4963989;28;20042;-83
2022/06/06 13:46:05;;;;;;;4.22;3.08;;;14.50;99.90;;;;;;4949910;28;20116;-84
2022/06/06 13:49:10;;;;;;;6.93;2.72;;;14.80;99.90;;;;;;4962873;28;20502;-85
2022/06/06 13:51:49;;;;;;;4.90;3.08;;;14.30;99.90;;;;;;4968041;28;20467;-82
2022/06/06 13:54:37;;;;;;;7.03;3.70;;;14.30;99.90;;;;;;4968996;28;20050;-85
2022/06/06 13:57:26;;;;;;;8.43;3.25;;;14.60;99.90;;;;;;4966548;28;20051;-84
2022/06/06 14:00:01;;;;;;;6.63;3.75;;;14.20;99.90;;;;;;4966188;28;20046;-85
2022/06/06 14:02:40;;;;;;;8.88;3.97;;;14.10;99.90;;;;;;4966701;28;20039;-86
2022/06/06 14:06:01;;;;;;;6.28;4.13;;;14.10;99.90;;;;;;4966076;28;20047;-83
2022/06/06 14:08:53;;;;;;;6.63;4.10;;;14.10;99.90;;;;;;4926261;28;20051;-84
2022/06/06 14:11:53;;;;;;;6.97;4.32;;;14.00;99.90;;;;;;4966400;28;20426;-85
2022/06/06 14:14:21;;;;;;;6.13;3.80;;;13.90;99.90;;;;;;4966216;28;20035;-89